createdAt,value
2022-12-05T00:01:19.249Z,1.99
2022-12-05T00:03:47.711Z,2.04
2022-12-05T00:06:14.586Z,2.06
2022-12-05T00:08:41.166Z,2.07
2022-12-05T00:11:15.101Z,2.06
2022-12-05T00:13:42.711Z,2.05
2022-12-05T00:16:14.353Z,2.27
2022-12-05T00:18:41.505Z,2.19
2022-12-05T00:21:13.528Z,2.15
2022-12-05T00:23:40.673Z,2.04
2022-12-05T00:26:07.246Z,2.11
2022-12-05T00:28:34.829Z,2.18
2022-12-05T00:31:07.807Z,2.06
2022-12-05T00:33:35.055Z,2.04
2022-12-05T00:36:11.121Z,2.06
2022-12-05T00:38:38.209Z,2.02
2022-12-05T00:41:11.109Z,2.01
2022-12-05T00:43:38.568Z,2.02
2022-12-05T00:46:07.367Z,1.99
2022-12-05T00:48:34.456Z,2.00
2022-12-05T00:51:06.925Z,2.04
2022-12-05T00:53:34.349Z,2.11
2022-12-05T00:56:06.236Z,2.07
2022-12-05T00:58:33.140Z,2.05
2022-12-05T01:01:10.563Z,2.09
2022-12-05T01:03:37.386Z,2.06
2022-12-05T01:06:05.989Z,2.05
2022-12-05T01:08:33.993Z,2.06
2022-12-05T01:11:01.519Z,2.10
2022-12-05T01:13:28.878Z,2.00
2022-12-05T01:15:55.665Z,1.99
2022-12-05T01:18:23.070Z,2.02
2022-12-05T01:20:50.960Z,1.98
2022-12-05T01:23:17.948Z,2.07
2022-12-05T01:25:47.272Z,2.06
2022-12-05T01:28:14.401Z,2.03
2022-12-05T01:30:42.792Z,2.13
2022-12-05T01:33:10.208Z,2.16
2022-12-05T01:35:38.491Z,2.05
2022-12-05T01:38:05.795Z,2.04
2022-12-05T01:40:33.786Z,2.02
2022-12-05T01:43:00.619Z,2.05
2022-12-05T01:45:41.374Z,2.06
2022-12-05T01:48:14.568Z,2.10
2022-12-05T01:50:41.492Z,2.13
2022-12-05T01:53:08.213Z,2.14
2022-12-05T01:55:36.144Z,2.09
2022-12-05T01:58:05.294Z,2.04
2022-12-05T02:00:32.879Z,2.06
2022-12-05T02:03:02.597Z,2.11
2022-12-05T02:05:35.682Z,2.06
2022-12-05T02:08:09.662Z,2.03
2022-12-05T02:10:40.869Z,2.09
2022-12-05T02:13:44.527Z,2.15
2022-12-05T02:16:34.881Z,2.10
2022-12-05T02:19:29.221Z,2.04
2022-12-05T02:22:31.084Z,2.10
2022-12-05T02:25:00.711Z,2.13
2022-12-05T02:28:09.044Z,2.10
2022-12-05T02:30:43.594Z,2.06
2022-12-05T02:33:22.868Z,2.04
2022-12-05T02:36:07.441Z,2.01
2022-12-05T02:38:54.121Z,1.98
2022-12-05T02:41:23.381Z,1.96
2022-12-05T02:44:09.540Z,1.99
2022-12-05T02:46:39.768Z,1.97
2022-12-05T02:49:11.760Z,1.97
2022-12-05T02:51:43.428Z,1.99
2022-12-05T02:54:19.674Z,1.99
2022-12-05T02:56:47.457Z,2.01
2022-12-05T02:59:18.509Z,2.00
2022-12-05T03:01:49.824Z,1.96
2022-12-05T03:04:20.089Z,2.01
2022-12-05T03:06:58.020Z,2.06
2022-12-05T03:09:33.722Z,2.11
2022-12-05T03:12:09.228Z,2.09
2022-12-05T03:14:41.713Z,2.11
2022-12-05T03:17:13.124Z,2.16
2022-12-05T03:19:49.720Z,2.28
2022-12-05T03:22:28.695Z,2.14
2022-12-05T03:24:55.843Z,2.09
2022-12-05T03:27:26.760Z,2.10
2022-12-05T03:29:56.451Z,2.10
2022-12-05T03:32:52.552Z,2.16
2022-12-05T03:35:51.593Z,2.20
2022-12-05T03:38:33.573Z,2.16
2022-12-05T03:41:10.367Z,2.10
2022-12-05T03:44:00.861Z,2.14
2022-12-05T03:46:35.394Z,2.14
2022-12-05T03:49:19.596Z,2.11
2022-12-05T03:51:58.504Z,2.05
2022-12-05T03:54:35.032Z,2.07
2022-12-05T03:57:09.276Z,2.16
2022-12-05T03:59:51.417Z,2.13
2022-12-05T04:02:27.107Z,2.08
2022-12-05T04:05:04.675Z,2.08
2022-12-05T04:07:36.299Z,2.09
2022-12-05T04:10:10.601Z,2.13
2022-12-05T04:12:40.138Z,2.17
2022-12-05T04:15:14.731Z,2.20
2022-12-05T04:17:53.437Z,2.23
2022-12-05T04:20:52.209Z,2.16
2022-12-05T04:23:19.047Z,2.06
2022-12-05T04:26:07.369Z,2.18
2022-12-05T04:28:46.020Z,2.13
2022-12-05T04:31:31.352Z,2.11
2022-12-05T04:34:05.392Z,2.04
2022-12-05T04:36:43.841Z,2.12
2022-12-05T04:39:37.673Z,2.17
2022-12-05T04:42:12.181Z,2.19
2022-12-05T04:44:45.493Z,2.21
2022-12-05T04:47:16.839Z,2.19
2022-12-05T04:49:54.293Z,2.14
2022-12-05T04:52:22.446Z,2.13
2022-12-05T04:54:59.851Z,2.12
2022-12-05T04:57:33.285Z,2.16
2022-12-05T05:00:00.310Z,2.20
2022-12-05T05:02:51.990Z,2.15
2022-12-05T05:05:19.918Z,2.14
2022-12-05T05:07:52.370Z,2.15
2022-12-05T05:10:39.720Z,2.18
2022-12-05T05:13:06.393Z,2.07
2022-12-05T05:15:33.106Z,2.03
2022-12-05T05:17:59.725Z,2.09
2022-12-05T05:20:27.405Z,2.04
2022-12-05T05:22:56.413Z,2.07
2022-12-05T05:25:24.100Z,2.06
2022-12-05T05:27:52.836Z,2.07
2022-12-05T05:30:20.814Z,2.06
2022-12-05T05:32:47.565Z,2.09
2022-12-05T05:35:15.058Z,2.14
2022-12-05T05:37:42.328Z,2.10
2022-12-05T05:40:11.344Z,2.08
2022-12-05T05:42:45.894Z,2.16
2022-12-05T05:45:14.170Z,2.14
2022-12-05T05:47:41.949Z,2.20
2022-12-05T05:50:10.032Z,2.16
2022-12-05T05:52:37.194Z,2.15
2022-12-05T05:55:05.611Z,2.15
2022-12-05T05:57:32.525Z,2.14
2022-12-05T05:59:59.440Z,2.14
2022-12-05T06:02:26.305Z,2.22
2022-12-05T06:04:52.923Z,2.20
2022-12-05T06:07:19.737Z,2.16
2022-12-05T06:09:46.362Z,2.14
2022-12-05T06:12:13.016Z,2.47
2022-12-05T06:14:39.605Z,2.81
2022-12-05T06:17:06.237Z,3.07
2022-12-05T06:19:32.857Z,2.94
2022-12-05T06:21:59.474Z,2.81
2022-12-05T06:24:26.274Z,2.76
2022-12-05T06:26:52.883Z,2.61
2022-12-05T06:29:22.861Z,2.44
2022-12-05T06:31:52.173Z,2.39
2022-12-05T06:34:18.897Z,2.47
2022-12-05T06:36:45.494Z,2.41
2022-12-05T06:39:12.142Z,2.42
2022-12-05T06:41:38.756Z,2.60
2022-12-05T06:44:05.386Z,2.62
2022-12-05T06:46:31.962Z,2.43
2022-12-05T06:48:59.500Z,2.33
2022-12-05T06:51:26.238Z,2.38
2022-12-05T06:53:52.874Z,2.33
2022-12-05T06:56:20.327Z,2.34
2022-12-05T06:58:48.710Z,2.42
2022-12-05T07:01:38.408Z,2.42
2022-12-05T07:04:26.254Z,2.43
2022-12-05T07:06:54.664Z,2.47
2022-12-05T07:09:44.589Z,2.57
2022-12-05T07:12:13.405Z,2.60
2022-12-05T07:14:47.493Z,2.55
2022-12-05T07:17:15.010Z,2.58
2022-12-05T07:19:41.597Z,2.53
2022-12-05T07:22:12.179Z,2.56
2022-12-05T07:24:42.308Z,2.58
2022-12-05T07:27:08.887Z,2.55
2022-12-05T07:29:35.462Z,2.61
2022-12-05T07:32:02.129Z,2.68
2022-12-05T07:34:28.948Z,2.66
2022-12-05T07:36:55.537Z,2.82
2022-12-05T07:39:22.157Z,2.76
2022-12-05T07:41:48.738Z,2.74
2022-12-05T07:44:17.169Z,2.81
2022-12-05T07:46:43.801Z,2.90
2022-12-05T07:49:10.462Z,2.89
2022-12-05T07:51:37.177Z,3.00
2022-12-05T07:54:03.897Z,3.08
2022-12-05T07:56:30.532Z,3.09
2022-12-05T07:58:57.287Z,3.13
2022-12-05T08:01:26.660Z,3.15
2022-12-05T08:03:55.724Z,3.14
2022-12-05T08:06:25.305Z,3.28
2022-12-05T08:08:53.299Z,3.28
2022-12-05T08:11:23.088Z,3.30
2022-12-05T08:13:50.528Z,3.38
2022-12-05T08:16:23.055Z,3.47
2022-12-05T08:18:53.705Z,3.58
2022-12-05T08:21:20.323Z,3.44
2022-12-05T08:23:47.425Z,3.41
2022-12-05T08:26:24.482Z,3.48
2022-12-05T08:28:56.724Z,3.38
2022-12-05T08:31:24.710Z,3.34
2022-12-05T08:33:57.076Z,3.35
2022-12-05T08:36:26.569Z,3.35
2022-12-05T08:38:58.248Z,3.48
2022-12-05T08:41:28.622Z,3.41
2022-12-05T08:44:02.978Z,3.50
2022-12-05T08:46:31.295Z,3.65
2022-12-05T08:48:58.183Z,3.73
2022-12-05T08:51:24.788Z,3.68
2022-12-05T08:53:51.540Z,3.71
2022-12-05T08:56:23.438Z,3.80
2022-12-05T08:58:53.433Z,3.78
2022-12-05T09:01:21.881Z,3.74
2022-12-05T09:03:48.794Z,3.88
2022-12-05T09:06:16.917Z,3.74
2022-12-05T09:08:44.283Z,3.67
2022-12-05T09:11:13.684Z,3.61
2022-12-05T09:13:40.673Z,3.54
2022-12-05T09:16:15.174Z,3.55
2022-12-05T09:18:42.750Z,3.60
2022-12-05T09:21:12.149Z,3.67
2022-12-05T09:23:39.026Z,3.68
2022-12-05T09:26:07.144Z,3.64
2022-12-05T09:28:58.105Z,3.69
2022-12-05T09:31:30.700Z,3.99
2022-12-05T09:34:22.193Z,4.23
2022-12-05T09:36:55.600Z,4.36
2022-12-05T09:39:25.177Z,4.23
2022-12-05T09:42:13.079Z,4.42
2022-12-05T09:45:10.866Z,4.34
2022-12-05T09:47:58.262Z,4.09
2022-12-05T09:50:46.812Z,3.92
2022-12-05T09:53:19.381Z,3.90
2022-12-05T09:55:51.501Z,3.95
2022-12-05T09:58:38.308Z,3.79
2022-12-05T10:01:22.952Z,3.85
2022-12-05T10:04:17.756Z,3.79
2022-12-05T10:07:13.885Z,3.58
2022-12-05T10:10:19.770Z,3.71
2022-12-05T10:12:53.721Z,3.72
2022-12-05T10:15:30.643Z,3.77
2022-12-05T10:18:02.214Z,3.89
2022-12-05T10:20:34.964Z,4.00
2022-12-05T10:23:28.128Z,4.12
2022-12-05T10:26:07.415Z,4.19
2022-12-05T10:28:40.224Z,4.23
2022-12-05T10:31:11.135Z,4.20
2022-12-05T10:33:41.969Z,4.29
2022-12-05T10:36:14.500Z,4.36
2022-12-05T10:38:43.077Z,4.67
2022-12-05T10:41:14.621Z,4.97
2022-12-05T10:43:44.900Z,4.97
2022-12-05T10:46:16.975Z,4.94
2022-12-05T10:48:44.464Z,4.87
2022-12-05T10:51:17.765Z,4.85
2022-12-05T10:53:49.948Z,4.72
2022-12-05T10:56:45.453Z,4.98
2022-12-05T10:59:15.623Z,4.95
2022-12-05T11:01:53.277Z,5.12
2022-12-05T11:04:24.688Z,5.32
2022-12-05T11:07:01.641Z,5.39
2022-12-05T11:09:38.975Z,5.17
2022-12-05T11:12:17.155Z,4.85
2022-12-05T11:14:59.315Z,4.77
2022-12-05T11:17:37.361Z,4.80
2022-12-05T11:20:20.130Z,4.69
2022-12-05T11:22:49.501Z,4.55
2022-12-05T11:25:36.660Z,4.58
2022-12-05T11:28:18.476Z,4.49
2022-12-05T11:31:05.407Z,4.47
2022-12-05T11:33:34.623Z,4.56
2022-12-05T11:36:11.523Z,4.65
2022-12-05T11:38:39.609Z,4.60
2022-12-05T11:41:27.609Z,4.68
2022-12-05T11:44:18.656Z,4.86
2022-12-05T11:47:22.591Z,4.97
2022-12-05T11:50:31.017Z,5.55
2022-12-05T11:53:22.525Z,5.63
2022-12-05T11:56:04.442Z,5.79
2022-12-05T11:58:54.373Z,5.53
2022-12-05T12:01:29.909Z,5.52
2022-12-05T12:04:19.502Z,5.51
2022-12-05T12:06:57.595Z,5.39
2022-12-05T12:09:53.976Z,5.37
2022-12-05T12:12:41.354Z,5.32
2022-12-05T12:15:31.543Z,5.16
2022-12-05T12:18:16.018Z,5.06
2022-12-05T12:20:55.711Z,4.93
2022-12-05T12:23:40.308Z,4.99
2022-12-05T12:26:12.572Z,4.80
2022-12-05T12:28:54.925Z,4.62
2022-12-05T12:31:35.867Z,4.75
2022-12-05T12:34:33.929Z,4.48
2022-12-05T12:37:14.221Z,4.45
2022-12-05T12:40:00.857Z,4.40
2022-12-05T12:43:02.669Z,4.30
2022-12-05T12:46:08.109Z,4.23
2022-12-05T12:48:49.310Z,4.20
2022-12-05T12:51:16.745Z,4.04
2022-12-05T12:54:09.299Z,3.98
2022-12-05T12:57:17.030Z,3.99
2022-12-05T12:59:58.013Z,4.04
2022-12-05T13:02:42.234Z,4.05
2022-12-05T13:05:27.020Z,4.18
2022-12-05T13:08:19.507Z,4.22
2022-12-05T13:10:48.426Z,4.29
2022-12-05T13:13:26.904Z,4.26
2022-12-05T13:15:58.196Z,4.33
2022-12-05T13:18:25.890Z,4.19
2022-12-05T13:20:56.495Z,4.21
2022-12-05T13:23:28.171Z,4.10
2022-12-05T13:25:58.389Z,4.13
2022-12-05T13:28:42.051Z,4.03
2022-12-05T13:31:10.716Z,4.15
2022-12-05T13:33:45.287Z,4.07
2022-12-05T13:36:32.433Z,3.99
2022-12-05T13:39:40.485Z,3.90
2022-12-05T13:42:21.024Z,3.78
2022-12-05T13:44:47.562Z,3.88
2022-12-05T13:47:20.333Z,3.90
2022-12-05T13:50:16.577Z,3.84
2022-12-05T13:52:49.221Z,3.78
2022-12-05T13:55:23.269Z,3.70
2022-12-05T13:57:52.949Z,3.78
2022-12-05T14:00:24.146Z,3.78
2022-12-05T14:02:52.855Z,3.91
2022-12-05T14:05:22.456Z,3.96
2022-12-05T14:08:00.897Z,3.82
2022-12-05T14:10:32.898Z,3.70
2022-12-05T14:13:22.699Z,3.74
2022-12-05T14:15:54.608Z,3.75
2022-12-05T14:18:24.858Z,3.71
2022-12-05T14:21:03.661Z,3.59
2022-12-05T14:23:50.230Z,3.58
2022-12-05T14:26:36.427Z,3.62
2022-12-05T14:29:27.468Z,3.57
2022-12-05T14:32:06.033Z,3.55
2022-12-05T14:34:38.061Z,3.52
2022-12-05T14:37:33.465Z,3.49
2022-12-05T14:40:02.594Z,3.47
2022-12-05T14:42:50.516Z,3.47
2022-12-05T14:45:20.140Z,3.48
2022-12-05T14:47:55.514Z,3.49
2022-12-05T14:50:24.285Z,3.56
2022-12-05T14:53:20.261Z,3.54
2022-12-05T14:56:00.682Z,3.68
2022-12-05T14:59:05.416Z,3.63
2022-12-05T15:01:40.455Z,3.46
2022-12-05T15:04:20.215Z,3.45
2022-12-05T15:06:54.605Z,3.43
2022-12-05T15:09:38.317Z,3.41
2022-12-05T15:12:13.532Z,3.36
2022-12-05T15:14:46.336Z,3.35
2022-12-05T15:17:18.362Z,3.63
2022-12-05T15:19:52.546Z,3.87
2022-12-05T15:22:22.567Z,3.92
2022-12-05T15:24:49.356Z,3.90
2022-12-05T15:27:16.741Z,3.82
2022-12-05T15:29:44.377Z,3.66
2022-12-05T15:32:11.009Z,3.51
2022-12-05T15:34:46.623Z,3.48
2022-12-05T15:37:17.790Z,3.47
2022-12-05T15:39:58.559Z,3.46
2022-12-05T15:42:40.982Z,3.35
2022-12-05T15:45:13.912Z,3.32
2022-12-05T15:47:41.398Z,3.42
2022-12-05T15:50:33.481Z,3.30
2022-12-05T15:53:02.757Z,3.28
2022-12-05T15:55:39.558Z,3.28
2022-12-05T15:58:12.956Z,3.19
2022-12-05T16:00:45.519Z,3.23
2022-12-05T16:03:19.694Z,3.32
2022-12-05T16:05:53.417Z,3.27
2022-12-05T16:08:20.359Z,3.25
2022-12-05T16:10:47.462Z,3.29
2022-12-05T16:13:16.282Z,3.24
2022-12-05T16:15:52.273Z,3.25
2022-12-05T16:18:26.660Z,3.31
2022-12-05T16:20:53.910Z,3.29
2022-12-05T16:23:38.723Z,3.30
2022-12-05T16:26:21.809Z,3.28
2022-12-05T16:29:02.206Z,3.27
2022-12-05T16:31:30.528Z,3.24
2022-12-05T16:34:07.037Z,3.28
2022-12-05T16:36:35.033Z,3.38
2022-12-05T16:39:06.863Z,3.34
2022-12-05T16:41:39.658Z,3.37
2022-12-05T16:44:29.300Z,3.34
2022-12-05T16:46:56.630Z,3.43
2022-12-05T16:49:41.312Z,3.36
2022-12-05T16:52:14.721Z,3.27
2022-12-05T16:54:42.709Z,3.31
2022-12-05T16:57:13.467Z,3.28
2022-12-05T16:59:45.575Z,3.34
2022-12-05T17:02:17.574Z,3.41
2022-12-05T17:04:45.995Z,3.44
2022-12-05T17:07:12.574Z,3.40
2022-12-05T17:09:39.357Z,3.36
2022-12-05T17:12:22.664Z,3.41
2022-12-05T17:14:49.998Z,3.36
2022-12-05T17:17:18.329Z,3.36
2022-12-05T17:19:45.671Z,3.32
2022-12-05T17:22:15.408Z,3.32
2022-12-05T17:24:42.040Z,3.25
2022-12-05T17:27:12.578Z,3.32
2022-12-05T17:29:39.407Z,3.30
2022-12-05T17:32:06.057Z,3.29
2022-12-05T17:34:32.692Z,3.26
2022-12-05T17:37:00.238Z,3.40
2022-12-05T17:39:28.853Z,3.38
2022-12-05T17:41:56.018Z,3.36
2022-12-05T17:44:22.657Z,3.32
2022-12-05T17:46:49.665Z,3.34
2022-12-05T17:49:17.931Z,3.32
2022-12-05T17:52:13.607Z,3.31
2022-12-05T17:54:31.858Z,3.35
2022-12-05T17:56:58.520Z,3.33
2022-12-05T17:59:25.109Z,3.31
2022-12-05T18:01:51.708Z,3.36
2022-12-05T18:04:22.913Z,3.34
2022-12-05T18:06:50.616Z,3.32
2022-12-05T18:09:17.226Z,3.27
2022-12-05T18:11:43.901Z,3.32
2022-12-05T18:14:10.551Z,3.31
2022-12-05T18:16:37.667Z,3.38
2022-12-05T18:19:04.383Z,3.41
2022-12-05T18:21:31.148Z,3.42
2022-12-05T18:23:57.781Z,3.30
2022-12-05T18:26:24.465Z,3.28
2022-12-05T18:28:53.689Z,3.29
2022-12-05T18:31:20.664Z,3.32
2022-12-05T18:33:47.408Z,3.32
2022-12-05T18:36:17.303Z,3.33
2022-12-05T18:38:53.226Z,3.38
2022-12-05T18:41:23.195Z,3.35
2022-12-05T18:43:50.660Z,3.38
2022-12-05T18:46:17.769Z,3.37
2022-12-05T18:48:47.505Z,3.37
2022-12-05T18:51:18.089Z,3.31
2022-12-05T18:53:51.694Z,3.29
2022-12-05T18:56:28.380Z,3.29
2022-12-05T18:59:06.937Z,3.28
2022-12-05T19:01:36.450Z,3.28
2022-12-05T19:04:06.622Z,3.30
2022-12-05T19:06:36.699Z,3.24
2022-12-05T19:09:11.500Z,3.24
2022-12-05T19:11:45.739Z,3.23
2022-12-05T19:14:15.743Z,3.24
2022-12-05T19:16:42.582Z,3.24
2022-12-05T19:19:13.572Z,3.25
2022-12-05T19:21:41.162Z,3.25
2022-12-05T19:24:08.749Z,3.32
2022-12-05T19:26:36.737Z,3.32
2022-12-05T19:29:03.606Z,3.36
2022-12-05T19:31:31.032Z,3.29
2022-12-05T19:34:02.732Z,3.34
2022-12-05T19:36:36.399Z,3.27
2022-12-05T19:39:15.199Z,3.32
2022-12-05T19:41:42.037Z,3.23
2022-12-05T19:44:08.655Z,3.22
2022-12-05T19:46:36.009Z,3.23
2022-12-05T19:49:06.644Z,3.21
2022-12-05T19:51:34.369Z,3.22
2022-12-05T19:54:02.483Z,3.23
2022-12-05T19:56:32.384Z,3.25
2022-12-05T19:58:59.740Z,3.17
2022-12-05T20:01:31.132Z,3.21
2022-12-05T20:04:04.018Z,3.23
2022-12-05T20:06:38.249Z,3.26
2022-12-05T20:09:06.895Z,3.24
2022-12-05T20:11:33.788Z,3.32
2022-12-05T20:14:01.673Z,3.32
2022-12-05T20:16:29.510Z,3.32
2022-12-05T20:18:58.929Z,3.32
2022-12-05T20:21:28.712Z,3.27
2022-12-05T20:23:56.164Z,3.32
2022-12-05T20:26:25.041Z,3.27
2022-12-05T20:28:52.015Z,3.27
2022-12-05T20:31:23.700Z,3.25
2022-12-05T20:33:52.153Z,3.29
2022-12-05T20:36:21.516Z,3.31
2022-12-05T20:38:48.855Z,3.37
2022-12-05T20:41:18.010Z,3.31
2022-12-05T20:43:46.268Z,3.28
2022-12-05T20:46:20.538Z,3.32
2022-12-05T20:48:47.888Z,3.34
2022-12-05T20:51:17.748Z,3.34
2022-12-05T20:53:45.446Z,3.32
2022-12-05T20:56:15.311Z,3.33
2022-12-05T20:58:45.212Z,3.26
2022-12-05T21:01:13.173Z,3.26
2022-12-05T21:03:42.376Z,3.32
2022-12-05T21:06:11.775Z,3.28
2022-12-05T21:08:39.139Z,3.31
2022-12-05T21:11:07.104Z,3.33
2022-12-05T21:13:34.083Z,3.32
2022-12-05T21:16:07.008Z,3.54
2022-12-05T21:18:33.643Z,3.44
2022-12-05T21:21:05.948Z,3.40
2022-12-05T21:23:33.360Z,3.35
2022-12-05T21:26:07.497Z,3.49
2022-12-05T21:28:34.908Z,3.35
2022-12-05T21:31:08.910Z,3.33
2022-12-05T21:33:36.102Z,3.28
2022-12-05T21:36:03.459Z,3.25
2022-12-05T21:38:31.008Z,3.21
2022-12-05T21:40:58.026Z,3.18
2022-12-05T21:43:24.605Z,3.20
2022-12-05T21:45:55.158Z,3.21
2022-12-05T21:48:23.340Z,3.13
2022-12-05T21:50:50.698Z,3.09
2022-12-05T21:53:18.502Z,3.11
2022-12-05T21:55:45.287Z,3.18
2022-12-05T21:58:12.187Z,3.13
2022-12-05T22:00:39.268Z,3.24
2022-12-05T22:03:07.543Z,3.16
2022-12-05T22:05:34.282Z,3.14
2022-12-05T22:08:06.029Z,3.17
2022-12-05T22:10:36.010Z,3.25
2022-12-05T22:13:02.991Z,3.29
2022-12-05T22:15:29.785Z,3.26
2022-12-05T22:17:56.457Z,3.34
2022-12-05T22:20:24.084Z,3.35
2022-12-05T22:22:51.116Z,3.30
2022-12-05T22:25:17.809Z,3.27
2022-12-05T22:27:44.364Z,3.31
2022-12-05T22:30:11.273Z,3.31
2022-12-05T22:32:38.204Z,3.35
2022-12-05T22:35:04.960Z,3.32
2022-12-05T22:37:31.843Z,3.35
2022-12-05T22:39:58.848Z,3.43
2022-12-05T22:42:27.552Z,3.45
2022-12-05T22:44:54.148Z,3.45
2022-12-05T22:47:20.777Z,3.42
2022-12-05T22:49:47.508Z,3.37
2022-12-05T22:52:14.753Z,3.31
2022-12-05T22:54:41.345Z,3.30
2022-12-05T22:57:08.165Z,3.31
2022-12-05T22:59:34.807Z,3.25
2022-12-05T23:02:01.648Z,3.26
2022-12-05T23:04:28.508Z,3.24
2022-12-05T23:06:55.078Z,3.22
2022-12-05T23:09:21.905Z,3.26
2022-12-05T23:11:51.544Z,3.30
2022-12-05T23:14:18.572Z,3.31
2022-12-05T23:16:45.192Z,3.31
2022-12-05T23:19:11.820Z,3.26
2022-12-05T23:21:39.801Z,3.22
2022-12-05T23:24:12.106Z,3.19
2022-12-05T23:26:42.360Z,3.29
2022-12-05T23:29:09.898Z,3.24
2022-12-05T23:31:36.562Z,3.18
2022-12-05T23:34:04.397Z,3.11
2022-12-05T23:36:32.794Z,3.00
2022-12-05T23:39:00.260Z,2.82
2022-12-05T23:41:27.483Z,2.67
2022-12-05T23:43:55.094Z,2.54
2022-12-05T23:46:24.520Z,2.50
2022-12-05T23:48:51.302Z,2.57
2022-12-05T23:51:26.972Z,2.46
2022-12-05T23:53:56.356Z,2.36
2022-12-05T23:56:25.649Z,2.30
2022-12-05T23:58:53.865Z,2.31
